Terminal Aerodrome Forecast
Issued by NWS Bismarck, ND

Home | Current Version | Previous Version | Graphics & Text | Print | Product List | Glossary On
Versions: 1 2 3 4 5 6 7 8 9 10 11 12 13 14 15 16 17 18
419
FTUS43 KBIS 201123
TAFISN
TAF
KISN 201123Z 2012/2112 00000KT P6SM FEW250
     FM201900 14010KT P6SM FEW110 SCT200
     FM210300 11009KT P6SM SCT200
     FM210900 16007KT P6SM SCT200=

USA.gov is the U.S. government's official web portal to all federal, state and local government web resources and services.